Time;durP1;ratioP1;P1;durP2;ratioP2;P2;SDS_P1;SDS_P2;PMS_P1;PMS_P2;Temp;Humidity;BMP_temperature;BMP_pressure;BME280_temperature;BME280_humidity;BME280_pressure;Samples;Min_cycle;Max_cycle;Signal;HPM_P1;HPM_P2
2022/04/01 00:01:09;;;;;;;6.20;1.58;;;4.10;84.70;;;;;;4996459;28;20041;-75
2022/04/01 00:03:35;;;;;;;2.90;1.45;;;4.10;85.30;;;;;;4996701;28;20376;-77
2022/04/01 00:06:01;;;;;;;7.63;1.60;;;4.20;85.00;;;;;;4996098;28;20068;-75
2022/04/01 00:08:26;;;;;;;3.92;1.70;;;4.10;85.20;;;;;;4996481;28;20475;-76
2022/04/01 00:10:52;;;;;;;3.45;1.50;;;4.10;85.80;;;;;;4978983;28;20041;-76
2022/04/01 00:13:17;;;;;;;4.20;1.67;;;4.00;86.00;;;;;;4996098;28;20089;-76
2022/04/01 00:15:43;;;;;;;3.60;1.63;;;4.00;86.60;;;;;;4995980;28;20030;-77
2022/04/01 00:18:09;;;;;;;2.83;1.45;;;4.00;87.40;;;;;;4996655;28;20065;-77
2022/04/01 00:20:35;;;;;;;5.03;1.52;;;4.00;87.50;;;;;;4997073;28;20030;-77
2022/04/01 00:23:01;;;;;;;9.75;1.85;;;4.00;87.80;;;;;;5024193;22;20066;-78
2022/04/01 00:25:28;;;;;;;4.57;1.70;;;4.00;87.80;;;;;;4998454;28;20100;-77
2022/04/01 00:27:54;;;;;;;5.50;1.88;;;4.00;88.30;;;;;;4999018;28;20030;-78
2022/04/01 00:30:20;;;;;;;4.15;1.50;;;4.00;89.00;;;;;;4981639;28;20479;-77
2022/04/01 00:32:46;;;;;;;7.32;1.73;;;4.00;89.10;;;;;;4987336;28;20030;-77
2022/04/01 00:35:12;;;;;;;3.00;1.30;;;3.90;89.80;;;;;;5003513;28;20049;-78
2022/04/01 00:37:38;;;;;;;3.85;1.63;;;4.00;89.40;;;;;;5004308;28;20023;-77
2022/04/01 00:40:04;;;;;;;5.55;1.50;;;3.90;90.20;;;;;;4986885;28;20022;-77
2022/04/01 00:42:30;;;;;;;9.02;2.08;;;4.00;90.20;;;;;;4985430;28;20033;-78
2022/04/01 00:44:58;;;;;;;7.18;1.80;;;4.00;90.50;;;;;;5004194;28;20022;-78
2022/04/01 00:47:24;;;;;;;5.63;1.55;;;4.00;90.60;;;;;;5007723;28;20090;-78
2022/04/01 00:49:49;;;;;;;6.82;1.30;;;4.00;90.60;;;;;;5011359;28;20011;-78
2022/04/01 00:52:16;;;;;;;5.78;1.70;;;4.00;90.90;;;;;;4981805;28;20018;-78
2022/04/01 00:54:43;;;;;;;4.82;1.58;;;4.00;91.00;;;;;;4997404;28;20113;-77
2022/04/01 00:57:11;;;;;;;6.05;1.70;;;4.00;91.20;;;;;;4996689;28;20027;-77
2022/04/01 00:59:36;;;;;;;2.58;1.55;;;4.00;91.50;;;;;;4988093;28;20026;-78
2022/04/01 01:02:03;;;;;;;5.50;1.60;;;4.00;91.20;;;;;;5000938;28;20045;-77
2022/04/01 01:04:29;;;;;;;5.60;1.48;;;4.00;91.10;;;;;;5001399;28;20034;-77
2022/04/01 01:07:00;;;;;;;5.03;1.40;;;4.00;91.30;;;;;;4985510;28;20077;-78
2022/04/01 01:09:26;;;;;;;8.25;1.70;;;4.00;91.20;;;;;;4998575;28;20026;-77
2022/04/01 01:11:53;;;;;;;3.28;1.30;;;4.00;91.20;;;;;;4998060;28;20059;-79
2022/04/01 01:14:26;;;;;;;5.93;1.33;;;4.00;91.40;;;;;;4995465;28;20029;-78
2022/04/01 01:16:52;;;;;;;5.00;1.70;;;4.00;91.60;;;;;;5004438;28;20034;-79
2022/04/01 01:19:18;;;;;;;9.63;1.70;;;3.90;91.70;;;;;;4999267;28;20027;-78
2022/04/01 01:21:46;;;;;;;8.20;2.00;;;3.90;91.70;;;;;;4999192;28;20537;-77
2022/04/01 01:24:15;;;;;;;3.83;1.60;;;3.90;91.90;;;;;;5000168;28;20031;-77
2022/04/01 01:26:44;;;;;;;6.28;1.42;;;3.90;92.20;;;;;;4998118;28;20049;-77
2022/04/01 01:29:10;;;;;;;6.32;1.33;;;3.90;92.30;;;;;;4997826;28;20026;-78
2022/04/01 01:31:36;;;;;;;5.20;1.55;;;3.90;92.30;;;;;;4999293;28;20109;-78
2022/04/01 01:34:02;;;;;;;7.55;1.67;;;3.90;92.70;;;;;;5005284;28;20030;-79
2022/04/01 01:36:30;;;;;;;7.28;1.80;;;4.00;92.80;;;;;;5013892;28;20117;-79
2022/04/01 01:38:56;;;;;;;3.40;1.42;;;3.90;92.90;;;;;;4992678;28;20038;-78
2022/04/01 01:41:21;;;;;;;6.45;1.23;;;3.90;93.40;;;;;;4999453;28;20098;-78
2022/04/01 01:43:48;;;;;;;4.22;1.30;;;3.90;93.40;;;;;;4999943;28;20095;-79
2022/04/01 01:46:14;;;;;;;5.93;1.50;;;4.00;93.90;;;;;;4999040;28;20026;-77
2022/04/01 01:48:40;;;;;;;8.13;1.70;;;3.90;93.90;;;;;;4994281;28;20022;-77
2022/04/01 01:56:39;;;;;;;7.47;2.38;;;3.90;94.80;;;;;;4999971;28;20106;-78
2022/04/01 01:59:05;;;;;;;8.32;1.70;;;3.90;94.80;;;;;;4999435;28;20032;-78
2022/04/01 02:01:30;;;;;;;9.98;1.58;;;3.90;94.90;;;;;;4979398;28;20066;-79
2022/04/01 02:03:56;;;;;;;6.68;1.40;;;3.90;95.20;;;;;;4999512;28;20030;-78
2022/04/01 02:06:22;;;;;;;5.45;1.33;;;3.80;95.20;;;;;;4994974;28;20054;-79
2022/04/01 02:08:50;;;;;;;5.05;1.48;;;3.90;95.60;;;;;;4997601;28;20022;-77
2022/04/01 02:11:16;;;;;;;4.60;1.40;;;3.90;95.90;;;;;;5000257;28;20024;-78
2022/04/01 02:13:42;;;;;;;6.38;1.58;;;3.80;96.00;;;;;;5001477;28;20114;-78
2022/04/01 02:16:07;;;;;;;6.18;1.63;;;3.80;96.20;;;;;;4985365;28;20078;-78
2022/04/01 02:18:33;;;;;;;5.88;2.00;;;3.80;96.30;;;;;;5000382;28;20042;-78
2022/04/01 02:20:58;;;;;;;4.13;1.25;;;3.80;96.40;;;;;;4999127;28;20027;-79
2022/04/01 02:23:25;;;;;;;6.20;1.90;;;3.80;96.30;;;;;;4999825;28;20027;-77
2022/04/01 02:25:51;;;;;;;7.97;1.30;;;3.90;96.50;;;;;;5007439;28;20107;-79
2022/04/01 02:28:17;;;;;;;11.13;1.67;;;3.80;96.80;;;;;;5008851;28;20057;-78
2022/04/01 02:30:42;;;;;;;9.05;2.08;;;3.80;97.20;;;;;;5009494;28;20030;-76
2022/04/01 02:33:08;;;;;;;13.32;1.52;;;3.80;97.70;;;;;;5011497;28;20037;-78
2022/04/01 02:35:34;;;;;;;6.18;1.58;;;3.80;97.70;;;;;;5003653;28;20390;-78
2022/04/01 02:37:59;;;;;;;11.13;1.30;;;3.80;98.00;;;;;;5003963;28;20086;-77
2022/04/01 02:40:25;;;;;;;7.28;1.60;;;3.90;98.10;;;;;;4995663;28;20023;-78
2022/04/01 02:42:53;;;;;;;4.90;1.40;;;3.90;98.30;;;;;;5001796;28;20038;-79
2022/04/01 02:45:21;;;;;;;10.82;1.67;;;3.90;98.60;;;;;;5013960;28;20031;-79
2022/04/01 02:47:47;;;;;;;6.68;1.48;;;3.90;98.50;;;;;;5013543;28;20023;-77
2022/04/01 02:50:13;;;;;;;10.25;1.73;;;3.80;99.30;;;;;;5012379;28;20034;-81
2022/04/01 02:52:38;;;;;;;5.45;1.90;;;3.80;99.90;;;;;;5007553;28;20078;-80
2022/04/01 02:55:05;;;;;;;10.75;1.45;;;3.80;99.90;;;;;;5002773;28;20028;-78
2022/04/01 02:57:31;;;;;;;7.40;1.75;;;3.80;99.90;;;;;;4998709;28;20030;-78
2022/04/01 02:59:57;;;;;;;8.90;1.50;;;3.80;99.90;;;;;;5010557;28;20022;-78
2022/04/01 03:02:22;;;;;;;4.30;1.30;;;3.80;99.90;;;;;;5003990;28;20037;-79
2022/04/01 03:04:48;;;;;;;9.50;1.60;;;3.80;99.90;;;;;;5010214;28;20169;-79
2022/04/01 03:07:14;;;;;;;4.95;1.45;;;3.80;99.90;;;;;;4984746;28;20027;-77
2022/04/01 03:09:39;;;;;;;7.53;1.48;;;3.80;99.90;;;;;;4980619;28;20033;-78
2022/04/01 03:12:07;;;;;;;3.92;1.55;;;3.80;99.90;;;;;;4998305;28;20053;-78
2022/04/01 03:14:32;;;;;;;5.70;1.52;;;3.80;99.90;;;;;;4999432;28;20030;-78
2022/04/01 03:16:58;;;;;;;5.45;1.65;;;3.90;99.90;;;;;;4995357;28;20035;-77
2022/04/01 03:19:24;;;;;;;4.47;1.52;;;3.90;99.90;;;;;;4979089;28;20022;-79
2022/04/01 03:21:50;;;;;;;7.53;2.08;;;3.90;99.90;;;;;;4996408;28;20037;-78
2022/04/01 03:24:16;;;;;;;7.07;1.70;;;4.00;99.90;;;;;;4996939;28;20527;-76
2022/04/01 03:26:42;;;;;;;7.22;1.70;;;4.00;99.90;;;;;;4996877;28;20049;-77
2022/04/01 03:29:10;;;;;;;5.80;1.75;;;4.00;99.90;;;;;;4980575;28;20034;-77
2022/04/01 03:31:36;;;;;;;7.53;2.10;;;4.00;99.90;;;;;;4999185;28;20061;-76
2022/04/01 03:34:02;;;;;;;11.20;1.92;;;4.00;99.90;;;;;;5003257;28;20026;-76
2022/04/01 03:36:27;;;;;;;9.80;2.03;;;4.10;99.90;;;;;;5001707;28;20030;-76
2022/04/01 03:38:53;;;;;;;7.55;1.90;;;4.10;99.90;;;;;;4998835;28;20391;-77
2022/04/01 03:41:19;;;;;;;10.15;1.70;;;4.10;99.90;;;;;;4978719;28;20479;-77
2022/04/01 03:43:45;;;;;;;4.93;1.92;;;4.10;99.90;;;;;;4978628;28;20471;-76
2022/04/01 03:46:15;;;;;;;11.75;2.28;;;4.10;99.90;;;;;;4978431;28;20038;-76
2022/04/01 03:48:55;;;;;;;7.90;2.03;;;4.10;99.90;;;;;;4996571;28;20029;-78
2022/04/01 03:51:25;;;;;;;7.55;2.42;;;4.10;99.90;;;;;;4997191;28;20093;-79
2022/04/01 03:54:02;;;;;;;6.40;1.92;;;4.00;99.90;;;;;;4997511;28;20072;-77
2022/04/01 03:56:34;;;;;;;9.05;2.30;;;4.00;99.90;;;;;;4984882;28;20026;-79
2022/04/01 03:59:02;;;;;;;9.38;2.15;;;3.90;99.90;;;;;;4998589;28;20045;-78
2022/04/01 04:01:28;;;;;;;5.90;2.40;;;3.90;99.90;;;;;;4996570;28;20499;-77
2022/04/01 04:03:56;;;;;;;11.02;2.53;;;3.90;99.90;;;;;;4999974;28;20041;-77
2022/04/01 04:06:22;;;;;;;10.05;2.85;;;4.00;99.90;;;;;;4996642;28;20391;-77
2022/04/01 04:08:50;;;;;;;13.70;2.50;;;4.00;99.90;;;;;;4978572;28;20022;-79
2022/04/01 04:11:18;;;;;;;9.90;2.55;;;3.90;99.90;;;;;;5004290;28;20014;-77
2022/04/01 04:13:45;;;;;;;6.05;2.70;;;3.90;99.90;;;;;;4997787;28;20430;-78
2022/04/01 04:16:23;;;;;;;9.35;3.05;;;4.00;99.90;;;;;;4978610;28;20408;-76
2022/04/01 04:18:52;;;;;;;11.18;3.20;;;4.00;99.90;;;;;;5001764;28;20037;-78
2022/04/01 04:21:30;;;;;;;12.45;3.10;;;4.00;99.90;;;;;;5004565;28;20029;-80
2022/04/01 04:24:01;;;;;;;13.85;3.50;;;4.00;99.90;;;;;;5005962;28;20026;-78
2022/04/01 04:26:37;;;;;;;17.42;3.67;;;4.00;99.90;;;;;;5019446;28;20030;-79
2022/04/01 04:29:15;;;;;;;9.32;3.35;;;4.00;99.90;;;;;;5018797;28;20068;-77
2022/04/01 04:32:03;;;;;;;7.50;2.55;;;4.00;99.90;;;;;;5015498;28;20018;-80
2022/04/01 04:34:37;;;;;;;10.48;2.90;;;4.00;99.90;;;;;;5001917;28;20090;-80
2022/04/01 04:37:08;;;;;;;8.40;3.28;;;4.00;99.90;;;;;;5004890;28;20030;-79
2022/04/01 04:39:35;;;;;;;11.68;4.70;;;3.90;99.90;;;;;;4995652;28;20061;-78
2022/04/01 04:42:05;;;;;;;8.18;2.90;;;4.00;99.90;;;;;;5015876;28;20034;-78
2022/04/01 04:44:31;;;;;;;10.05;3.20;;;3.90;99.90;;;;;;5007417;28;20060;-80
2022/04/01 04:47:01;;;;;;;11.43;3.40;;;3.90;99.90;;;;;;5001361;28;20392;-78
2022/04/01 04:49:28;;;;;;;13.35;2.97;;;3.90;99.90;;;;;;5002542;28;20042;-79
2022/04/01 04:51:54;;;;;;;10.98;3.15;;;3.90;99.90;;;;;;5005845;28;20030;-78
2022/04/01 04:54:21;;;;;;;19.58;3.63;;;4.00;99.90;;;;;;5001640;28;20102;-82
2022/04/01 04:56:48;;;;;;;12.80;3.70;;;4.00;99.90;;;;;;5002627;28;20058;-77
2022/04/01 04:59:17;;;;;;;11.50;3.25;;;4.00;99.90;;;;;;5002688;28;20034;-79
2022/04/01 05:01:52;;;;;;;10.60;3.55;;;4.00;99.90;;;;;;5000579;28;20030;-78
2022/04/01 05:04:39;;;;;;;18.90;4.22;;;3.90;99.90;;;;;;4996492;28;20034;-78
2022/04/01 05:07:34;;;;;;;18.30;3.67;;;3.90;99.90;;;;;;4997170;28;20026;-77
2022/04/01 05:10:19;;;;;;;8.38;3.20;;;4.00;99.90;;;;;;5005112;28;20282;-77
2022/04/01 05:12:53;;;;;;;16.30;4.78;;;4.00;99.90;;;;;;5004742;28;20026;-77
2022/04/01 05:15:23;;;;;;;17.92;5.30;;;4.00;99.90;;;;;;4992394;28;20057;-79
2022/04/01 05:18:08;;;;;;;21.70;4.47;;;4.00;99.90;;;;;;5010064;28;20392;-80
2022/04/01 05:20:47;;;;;;;7.20;2.83;;;4.00;99.90;;;;;;4983246;28;20122;-80
2022/04/01 05:23:16;;;;;;;14.57;3.97;;;4.00;99.90;;;;;;4995361;28;20464;-77
2022/04/01 05:25:52;;;;;;;10.35;3.33;;;4.10;99.90;;;;;;4995662;28;20030;-75
2022/04/01 05:28:23;;;;;;;13.32;4.30;;;4.00;99.90;;;;;;4979446;28;20041;-78
2022/04/01 05:31:00;;;;;;;8.90;3.35;;;4.00;99.90;;;;;;5000028;28;20026;-77
2022/04/01 05:33:28;;;;;;;15.15;4.32;;;4.00;99.90;;;;;;4995013;28;20026;-79
2022/04/01 05:35:55;;;;;;;12.00;4.25;;;4.00;99.90;;;;;;4993651;28;20026;-76
2022/04/01 05:38:23;;;;;;;13.05;4.45;;;4.00;99.90;;;;;;4994226;28;20173;-75
2022/04/01 05:40:52;;;;;;;17.35;4.50;;;4.00;99.90;;;;;;4993987;28;20030;-75
2022/04/01 05:43:19;;;;;;;12.07;3.85;;;4.00;99.90;;;;;;4976252;28;20388;-77
2022/04/01 05:45:45;;;;;;;15.32;4.35;;;4.00;99.90;;;;;;4994433;28;20472;-74
2022/04/01 05:48:11;;;;;;;16.50;4.10;;;4.10;99.90;;;;;;4993729;28;20032;-76
2022/04/01 05:50:38;;;;;;;16.45;4.60;;;4.10;99.90;;;;;;4994191;28;20019;-76
2022/04/01 05:53:05;;;;;;;12.32;3.88;;;4.10;99.90;;;;;;4995090;28;20014;-74
2022/04/01 05:55:35;;;;;;;16.83;4.60;;;4.10;99.90;;;;;;5001413;28;20029;-75
2022/04/01 05:58:04;;;;;;;11.95;4.75;;;4.20;99.90;;;;;;5003160;28;20022;-74
2022/04/01 06:00:36;;;;;;;8.82;4.22;;;4.10;99.90;;;;;;4999375;28;20019;-75
2022/04/01 06:03:46;;;;;;;13.38;4.18;;;4.20;99.90;;;;;;4994228;28;20065;-78
2022/04/01 06:06:20;;;;;;;13.55;4.53;;;4.20;99.90;;;;;;4994183;28;20096;-76
2022/04/01 06:09:09;;;;;;;14.48;4.70;;;4.20;99.90;;;;;;4978699;28;20476;-77
2022/04/01 06:11:54;;;;;;;13.88;3.92;;;4.20;99.90;;;;;;4994652;28;20447;-75
2022/04/01 06:14:46;;;;;;;13.40;4.87;;;4.30;99.90;;;;;;4998016;28;20030;-76
2022/04/01 06:17:38;;;;;;;15.68;3.97;;;4.30;99.90;;;;;;4993490;28;20022;-77
2022/04/01 06:20:07;;;;;;;16.55;4.38;;;4.30;99.90;;;;;;4973926;28;20161;-77
2022/04/01 06:22:40;;;;;;;14.55;4.45;;;4.40;99.90;;;;;;5005126;28;20088;-76
2022/04/01 06:25:15;;;;;;;15.48;4.28;;;4.30;99.90;;;;;;4994026;28;20511;-77
2022/04/01 06:27:48;;;;;;;13.07;4.32;;;4.40;99.90;;;;;;5006726;28;20026;-76
2022/04/01 06:30:20;;;;;;;12.10;4.35;;;4.40;99.90;;;;;;5000079;28;20045;-76
2022/04/01 06:33:02;;;;;;;17.40;4.35;;;4.40;99.90;;;;;;5009754;28;20053;-80
2022/04/01 06:35:59;;;;;;;14.27;4.03;;;4.40;99.90;;;;;;4991445;28;20026;-78
2022/04/01 06:38:53;;;;;;;15.52;5.03;;;4.40;99.90;;;;;;4998517;28;20038;-80
2022/04/01 06:41:21;;;;;;;19.92;4.78;;;4.40;99.90;;;;;;4986892;28;20026;-78
2022/04/01 06:43:48;;;;;;;12.75;4.70;;;4.50;99.90;;;;;;5004532;28;20072;-78
2022/04/01 06:46:13;;;;;;;16.70;4.75;;;4.50;99.90;;;;;;5003570;28;20037;-79
2022/04/01 06:48:40;;;;;;;11.60;4.43;;;4.50;99.90;;;;;;5007809;28;20026;-77
2022/04/01 06:51:08;;;;;;;18.98;4.90;;;4.50;99.90;;;;;;5010762;28;20076;-79
2022/04/01 06:53:36;;;;;;;15.35;5.20;;;4.60;99.90;;;;;;5005923;28;20098;-79
2022/04/01 06:56:04;;;;;;;17.60;5.43;;;4.50;99.90;;;;;;5004107;28;20090;-79
2022/04/01 06:58:30;;;;;;;16.10;5.47;;;4.50;99.90;;;;;;5004304;28;20495;-80
2022/04/01 07:00:56;;;;;;;13.30;4.93;;;4.60;99.90;;;;;;4985126;28;20058;-79
2022/04/01 07:03:23;;;;;;;20.88;5.32;;;4.70;99.90;;;;;;4985796;28;20049;-78
2022/04/01 07:05:49;;;;;;;13.73;4.60;;;4.80;99.90;;;;;;5002993;28;20364;-78
2022/04/01 07:08:16;;;;;;;12.95;4.43;;;4.90;99.90;;;;;;5002205;28;20022;-78
2022/04/01 07:10:44;;;;;;;15.50;4.68;;;4.90;99.90;;;;;;5012236;28;20023;-78
2022/04/01 07:13:10;;;;;;;14.50;4.30;;;4.90;99.90;;;;;;5016502;28;20030;-75
2022/04/01 07:15:36;;;;;;;12.25;4.57;;;5.00;99.90;;;;;;5015508;28;20141;-76
2022/04/01 07:18:02;;;;;;;22.30;5.90;;;5.00;99.90;;;;;;4992258;28;20376;-77
2022/04/01 07:20:29;;;;;;;19.85;4.35;;;4.90;99.90;;;;;;4994023;28;20050;-78
2022/04/01 07:22:55;;;;;;;12.82;4.85;;;4.90;99.90;;;;;;4994288;28;20041;-78
2022/04/01 07:25:22;;;;;;;16.85;5.13;;;4.90;99.90;;;;;;5006569;28;20058;-79
2022/04/01 07:27:49;;;;;;;18.75;4.95;;;4.90;99.90;;;;;;5006066;28;20027;-79
2022/04/01 07:30:14;;;;;;;17.67;4.75;;;5.00;99.90;;;;;;5006377;28;20065;-78
2022/04/01 07:32:40;;;;;;;15.00;4.70;;;5.00;99.90;;;;;;5008913;28;20022;-76
2022/04/01 07:35:13;;;;;;;12.43;4.30;;;5.10;99.90;;;;;;5012854;28;20041;-77
2022/04/01 07:37:39;;;;;;;16.83;5.97;;;5.10;99.90;;;;;;5010238;28;20030;-77
2022/04/01 07:40:05;;;;;;;15.40;4.72;;;5.10;99.90;;;;;;4987338;28;20086;-76
2022/04/01 07:42:31;;;;;;;15.80;4.28;;;5.20;99.90;;;;;;5005451;28;20026;-76
2022/04/01 07:44:57;;;;;;;11.77;4.75;;;5.30;99.90;;;;;;5003001;28;20027;-76
2022/04/01 07:47:24;;;;;;;15.13;5.30;;;5.40;99.90;;;;;;5003209;28;20081;-77
2022/04/01 07:49:51;;;;;;;10.93;5.50;;;5.40;99.90;;;;;;5001438;28;20538;-78
2022/04/01 07:52:19;;;;;;;14.02;5.38;;;5.40;99.90;;;;;;5002773;28;20467;-77
2022/04/01 07:54:45;;;;;;;14.95;5.07;;;5.50;99.90;;;;;;5004465;28;20034;-77
2022/04/01 07:57:13;;;;;;;17.80;5.13;;;5.50;99.90;;;;;;5015292;28;20034;-77
2022/04/01 07:59:39;;;;;;;17.52;5.40;;;5.40;99.90;;;;;;4981949;28;20031;-76
2022/04/01 08:02:05;;;;;;;14.52;4.95;;;5.50;99.90;;;;;;5005394;28;20022;-79
2022/04/01 08:04:30;;;;;;;12.05;5.10;;;5.50;99.90;;;;;;4998116;28;20041;-76
2022/04/01 08:06:57;;;;;;;19.58;4.95;;;5.50;99.90;;;;;;5003302;28;20105;-76
2022/04/01 08:09:26;;;;;;;18.50;5.78;;;5.50;99.90;;;;;;4997338;28;20105;-77
2022/04/01 08:11:53;;;;;;;17.55;5.00;;;5.60;99.90;;;;;;4996524;28;20098;-80
2022/04/01 08:14:19;;;;;;;12.45;6.00;;;5.50;99.90;;;;;;4995604;28;20084;-77
2022/04/01 08:16:46;;;;;;;15.75;6.03;;;5.60;99.90;;;;;;4996345;28;20033;-77
2022/04/01 08:19:13;;;;;;;13.90;5.15;;;5.60;99.90;;;;;;4997416;28;20082;-79
2022/04/01 08:21:39;;;;;;;12.82;5.00;;;5.70;99.90;;;;;;4996285;28;20041;-77
2022/04/01 08:24:06;;;;;;;16.70;5.82;;;5.70;99.90;;;;;;4997537;28;20035;-78
2022/04/01 08:26:32;;;;;;;8.15;4.22;;;5.80;99.90;;;;;;4995788;28;20018;-77
2022/04/01 08:28:57;;;;;;;12.38;4.88;;;5.80;99.90;;;;;;4994980;28;20030;-77
2022/04/01 08:31:24;;;;;;;13.80;5.68;;;5.90;99.90;;;;;;4996464;28;20443;-77
2022/04/01 08:33:50;;;;;;;19.10;5.38;;;5.90;99.90;;;;;;4996381;28;20383;-82
2022/04/01 08:36:17;;;;;;;15.85;6.15;;;5.90;99.90;;;;;;4996126;28;20118;-77
2022/04/01 08:38:43;;;;;;;26.35;5.90;;;5.90;99.90;;;;;;4996454;28;20042;-78
2022/04/01 08:41:08;;;;;;;13.60;5.57;;;5.90;99.90;;;;;;4995880;28;20480;-77
2022/04/01 08:43:36;;;;;;;13.70;5.38;;;5.90;99.90;;;;;;4995113;28;20468;-75
2022/04/01 08:46:05;;;;;;;18.67;5.88;;;5.80;99.90;;;;;;4994598;28;20088;-76
2022/04/01 08:48:32;;;;;;;17.20;5.50;;;5.90;99.90;;;;;;4996309;28;20022;-78
2022/04/01 08:50:57;;;;;;;10.77;5.20;;;5.80;99.90;;;;;;5002424;28;20488;-79
2022/04/01 08:53:23;;;;;;;14.85;5.68;;;5.90;99.90;;;;;;5003244;28;20034;-80
2022/04/01 08:55:52;;;;;;;22.00;5.57;;;5.90;99.90;;;;;;4979349;28;20030;-77
2022/04/01 08:58:23;;;;;;;11.80;5.40;;;5.90;99.30;;;;;;4996678;28;20085;-77
2022/04/01 09:00:50;;;;;;;13.85;5.60;;;6.00;98.60;;;;;;4996167;28;20404;-77
2022/04/01 09:03:17;;;;;;;15.10;5.13;;;6.10;98.20;;;;;;4978499;28;20490;-78
2022/04/01 09:05:51;;;;;;;16.05;5.75;;;6.10;98.40;;;;;;5000237;28;20053;-78
2022/04/01 09:08:27;;;;;;;14.65;4.93;;;6.20;99.00;;;;;;4999092;28;20018;-77
2022/04/01 09:11:03;;;;;;;19.13;4.88;;;6.20;98.70;;;;;;4996245;28;20031;-78
2022/04/01 09:13:32;;;;;;;12.90;4.65;;;6.20;98.00;;;;;;4996216;28;20026;-76
2022/04/01 09:15:59;;;;;;;13.75;4.63;;;6.10;98.10;;;;;;4996619;28;20027;-79
2022/04/01 09:18:39;;;;;;;12.18;4.25;;;6.10;98.40;;;;;;4998741;28;20018;-78
2022/04/01 09:21:06;;;;;;;11.80;4.60;;;6.20;98.70;;;;;;4998717;28;20049;-77
2022/04/01 09:23:32;;;;;;;17.83;4.18;;;6.20;98.50;;;;;;4978146;28;20073;-76
2022/04/01 09:25:57;;;;;;;9.77;3.63;;;6.20;98.80;;;;;;4994281;28;20038;-76
2022/04/01 09:28:32;;;;;;;10.70;3.40;;;6.20;98.70;;;;;;4994224;28;20459;-76
2022/04/01 09:31:10;;;;;;;10.98;3.58;;;6.20;98.30;;;;;;4994698;28;20555;-76
2022/04/01 09:33:46;;;;;;;11.48;3.30;;;6.20;98.40;;;;;;4994893;28;20033;-78
2022/04/01 09:36:17;;;;;;;8.43;3.63;;;6.20;98.60;;;;;;4995007;28;20050;-77
2022/04/01 09:38:52;;;;;;;11.15;3.40;;;6.20;99.30;;;;;;4997853;28;20041;-78
2022/04/01 09:41:19;;;;;;;12.75;3.47;;;6.30;99.60;;;;;;4978499;28;20476;-75
2022/04/01 09:43:45;;;;;;;8.40;3.45;;;6.30;99.90;;;;;;4995980;28;20029;-75
2022/04/01 09:46:24;;;;;;;18.27;3.50;;;6.40;99.90;;;;;;4995770;28;20030;-75
2022/04/01 09:48:54;;;;;;;10.27;3.42;;;6.40;99.70;;;;;;5002870;28;20336;-76
2022/04/01 09:51:21;;;;;;;10.98;3.33;;;6.40;99.90;;;;;;4993602;28;20072;-77
2022/04/01 09:53:54;;;;;;;9.07;3.70;;;6.50;99.80;;;;;;4996653;28;20084;-76
2022/04/01 09:56:35;;;;;;;11.60;4.15;;;6.40;99.80;;;;;;4997244;28;20022;-76
2022/04/01 09:59:04;;;;;;;22.48;3.90;;;6.40;99.90;;;;;;5004219;28;20026;-76
2022/04/01 10:01:31;;;;;;;11.52;3.38;;;6.50;99.90;;;;;;5002476;28;20026;-75
2022/04/01 10:03:57;;;;;;;8.50;3.30;;;6.40;99.30;;;;;;5004676;28;20058;-74
2022/04/01 10:06:23;;;;;;;10.68;4.05;;;6.40;99.90;;;;;;5008503;28;20033;-74
2022/04/01 10:08:50;;;;;;;12.40;3.40;;;6.50;99.90;;;;;;5008274;28;20026;-75
2022/04/01 10:11:17;;;;;;;12.70;5.43;;;6.60;99.90;;;;;;5000347;28;20018;-74
2022/04/01 10:13:44;;;;;;;13.60;3.80;;;6.70;99.60;;;;;;4993806;28;20025;-78
2022/04/01 10:16:11;;;;;;;8.20;3.13;;;6.80;98.90;;;;;;4994299;28;20439;-77
2022/04/01 10:18:41;;;;;;;14.48;4.88;;;6.80;99.90;;;;;;4979800;28;20061;-83
2022/04/01 10:21:07;;;;;;;14.68;4.07;;;6.70;98.50;;;;;;4995279;28;20022;-75
2022/04/01 10:23:37;;;;;;;8.18;2.70;;;6.60;98.60;;;;;;4996888;28;20570;-76
2022/04/01 10:26:07;;;;;;;9.55;2.70;;;6.70;98.80;;;;;;5003178;28;20030;-77
2022/04/01 10:28:33;;;;;;;9.68;3.60;;;6.70;99.20;;;;;;5007676;28;20027;-78
2022/04/01 10:31:01;;;;;;;13.90;3.45;;;6.70;98.90;;;;;;5008077;28;20057;-76
2022/04/01 10:33:33;;;;;;;8.63;2.90;;;6.70;98.60;;;;;;5006543;28;20022;-76
2022/04/01 10:35:59;;;;;;;12.20;4.20;;;6.60;99.10;;;;;;5005880;28;20053;-77
2022/04/01 10:38:28;;;;;;;6.60;2.58;;;6.60;99.70;;;;;;5001402;28;20142;-76
2022/04/01 10:41:05;;;;;;;16.10;3.50;;;6.60;99.80;;;;;;4996674;28;20031;-79
2022/04/01 10:43:31;;;;;;;9.85;2.92;;;6.50;99.90;;;;;;5000772;28;20173;-77
2022/04/01 10:46:04;;;;;;;10.10;2.90;;;6.60;99.90;;;;;;4999007;28;20054;-77
2022/04/01 10:54:23;;;;;;;9.20;2.70;;;6.70;99.40;;;;;;5010580;28;20033;-79
2022/04/01 10:57:06;;;;;;;7.57;2.35;;;6.60;99.00;;;;;;4996831;28;20034;-80
2022/04/01 11:00:00;;;;;;;12.98;2.95;;;6.60;99.30;;;;;;4984900;28;20065;-77
2022/04/01 11:02:26;;;;;;;12.52;2.72;;;6.70;99.60;;;;;;4981571;28;20034;-78
2022/04/01 11:04:52;;;;;;;6.93;2.33;;;6.80;99.80;;;;;;5009727;28;20030;-76
2022/04/01 11:07:23;;;;;;;9.32;2.00;;;6.90;99.00;;;;;;5014055;28;20029;-77
2022/04/01 11:10:04;;;;;;;9.45;3.15;;;7.00;99.50;;;;;;5001783;28;20484;-75
2022/04/01 11:12:32;;;;;;;17.88;3.13;;;7.20;99.40;;;;;;5001084;28;20022;-78
2022/04/01 11:14:58;;;;;;;17.17;2.83;;;7.40;99.40;;;;;;5004885;28;20034;-77
2022/04/01 11:17:49;;;;;;;12.38;2.83;;;7.40;98.80;;;;;;4985686;28;20442;-77
2022/04/01 11:20:26;;;;;;;6.22;2.47;;;7.50;97.90;;;;;;5002487;28;20030;-80
2022/04/01 11:22:56;;;;;;;10.48;2.42;;;7.60;97.40;;;;;;5009586;28;20045;-77
2022/04/01 11:25:22;;;;;;;7.30;2.15;;;7.60;96.70;;;;;;5010313;28;20027;-77
2022/04/01 11:27:51;;;;;;;8.60;2.28;;;7.60;96.10;;;;;;5010506;28;20025;-77
2022/04/01 11:30:24;;;;;;;7.80;2.40;;;7.50;96.40;;;;;;5007019;28;20026;-78
2022/04/01 11:33:07;;;;;;;15.15;2.63;;;7.40;96.10;;;;;;5018206;28;20035;-77
2022/04/01 11:35:36;;;;;;;6.47;2.30;;;7.30;95.70;;;;;;5020927;28;20038;-76
2022/04/01 11:38:02;;;;;;;7.47;2.58;;;7.20;96.10;;;;;;5015978;28;20050;-77
2022/04/01 11:40:33;;;;;;;6.35;2.30;;;7.30;96.40;;;;;;5010240;28;20022;-76
2022/04/01 11:43:04;;;;;;;9.43;2.35;;;7.40;95.70;;;;;;5004392;28;20801;-75
2022/04/01 11:45:33;;;;;;;6.90;2.47;;;7.50;95.40;;;;;;5007937;28;20046;-76
2022/04/01 11:48:12;;;;;;;10.63;2.53;;;7.40;95.90;;;;;;5005248;28;20026;-77
2022/04/01 11:50:41;;;;;;;12.15;2.72;;;7.40;95.90;;;;;;5008847;28;20109;-79
2022/04/01 11:53:08;;;;;;;8.55;2.53;;;7.30;95.70;;;;;;5009903;28;20023;-78
2022/04/01 11:55:42;;;;;;;10.40;3.00;;;7.30;96.50;;;;;;4991496;28;20698;-78
2022/04/01 11:58:08;;;;;;;7.75;2.83;;;7.40;96.50;;;;;;5009502;28;20037;-79
2022/04/01 12:00:34;;;;;;;12.90;3.10;;;7.50;95.80;;;;;;5005887;28;20022;-80
2022/04/01 12:02:59;;;;;;;9.35;2.15;;;7.50;96.20;;;;;;4986245;28;20073;-80
2022/04/01 12:05:30;;;;;;;7.80;2.45;;;7.40;95.30;;;;;;5002440;28;20027;-79
2022/04/01 12:10:41;;;;;;;9.13;2.72;;;7.50;95.80;;;;;;5003116;28;20069;-79
2022/04/01 12:13:09;;;;;;;14.50;2.95;;;7.70;96.30;;;;;;5002661;28;20030;-78
2022/04/01 12:15:40;;;;;;;7.22;2.40;;;7.80;95.40;;;;;;5013930;28;20094;-78
2022/04/01 12:18:21;;;;;;;7.70;2.58;;;7.60;95.80;;;;;;5013852;28;20019;-76
2022/04/01 12:20:49;;;;;;;6.47;2.63;;;7.60;95.70;;;;;;4992216;28;20022;-80
2022/04/01 12:23:16;;;;;;;5.57;2.30;;;7.70;96.00;;;;;;5001677;28;20094;-77
2022/04/01 12:25:43;;;;;;;6.85;2.30;;;7.80;95.20;;;;;;5006807;28;20026;-77
2022/04/01 12:28:10;;;;;;;7.43;2.60;;;7.80;94.20;;;;;;4985049;28;20022;-79
2022/04/01 12:30:45;;;;;;;7.40;2.58;;;7.70;93.80;;;;;;4997497;28;20080;-80
2022/04/01 12:33:14;;;;;;;9.57;2.60;;;7.60;94.00;;;;;;5007250;28;20049;-77
2022/04/01 12:35:52;;;;;;;9.27;2.80;;;7.60;94.00;;;;;;5009295;28;20041;-77
2022/04/01 12:38:18;;;;;;;5.88;2.30;;;7.60;94.40;;;;;;5006635;28;20439;-78
2022/04/01 12:40:47;;;;;;;8.18;2.70;;;7.70;95.10;;;;;;5004581;28;20037;-78
2022/04/01 12:43:37;;;;;;;9.27;3.10;;;7.70;94.60;;;;;;4979954;28;20071;-79
2022/04/01 12:46:12;;;;;;;12.82;2.83;;;7.50;95.00;;;;;;4996541;28;20117;-77
2022/04/01 12:48:54;;;;;;;6.18;2.88;;;7.40;95.60;;;;;;4997281;28;20041;-78
2022/04/01 12:51:34;;;;;;;6.55;2.47;;;7.40;96.10;;;;;;4998733;28;20041;-77
2022/04/01 12:54:22;;;;;;;10.77;2.63;;;7.60;94.90;;;;;;4998067;28;20428;-78
2022/04/01 12:56:51;;;;;;;8.85;4.38;;;7.60;93.70;;;;;;4997249;28;20030;-79
2022/04/01 12:59:19;;;;;;;7.68;2.47;;;7.40;92.50;;;;;;4980376;28;20034;-79
2022/04/01 13:01:55;;;;;;;8.20;2.80;;;7.30;92.30;;;;;;4997688;28;20110;-76
2022/04/01 13:04:22;;;;;;;7.53;2.78;;;7.30;92.10;;;;;;4996667;28;20060;-77
2022/04/01 13:07:07;;;;;;;11.90;4.22;;;7.20;92.70;;;;;;4996068;28;20031;-79
2022/04/01 13:09:49;;;;;;;5.72;2.70;;;7.20;92.40;;;;;;4995432;28;20510;-76
2022/04/01 13:12:23;;;;;;;17.92;3.30;;;7.30;92.40;;;;;;4996664;28;20038;-77
2022/04/01 13:15:00;;;;;;;11.02;2.92;;;7.30;93.00;;;;;;4997804;28;20101;-82
2022/04/01 13:17:26;;;;;;;7.70;2.67;;;7.50;93.20;;;;;;4981759;28;20050;-78
2022/04/01 13:19:52;;;;;;;10.73;3.33;;;7.40;93.00;;;;;;5000297;28;20523;-77